Time;durP1;ratioP1;P1;durP2;ratioP2;P2;SDS_P1;SDS_P2;PMS_P1;PMS_P2;Temp;Humidity;BMP_temperature;BMP_pressure;BME280_temperature;BME280_humidity;BME280_pressure;Samples;Min_cycle;Max_cycle;Signal;HPM_P1;HPM_P2
2021/07/30 00:00:28;;;;;;;22.73;8.65;;;;;;;18.00;77.19;95952.78;5111253;28;20040;-72
2021/07/30 00:02:54;;;;;;;14.05;8.40;;;;;;;18.02;77.00;95946.13;5111354;28;20047;-72
2021/07/30 00:05:21;;;;;;;14.68;8.65;;;;;;;18.02;77.38;95948.88;5108209;28;20048;-73
2021/07/30 00:07:49;;;;;;;12.27;7.30;;;;;;;18.03;77.33;95947.69;5111468;28;20047;-72
2021/07/30 00:10:15;;;;;;;12.68;7.82;;;;;;;18.00;77.23;95944.50;5111110;28;20051;-72
2021/07/30 00:12:42;;;;;;;12.00;7.32;;;;;;;17.99;77.56;95942.16;5111671;28;20043;-72
2021/07/30 00:15:09;;;;;;;13.10;7.78;;;;;;;17.99;77.49;95942.94;5111094;28;20044;-73
2021/07/30 00:17:35;;;;;;;11.85;7.80;;;;;;;17.94;77.34;95937.75;5111390;28;20055;-72
2021/07/30 00:20:03;;;;;;;12.10;7.28;;;;;;;17.99;77.30;95942.16;5110873;28;20122;-72
2021/07/30 00:22:30;;;;;;;14.30;7.93;;;;;;;17.95;77.17;95939.34;5111119;28;20039;-72
2021/07/30 00:24:57;;;;;;;10.82;7.47;;;;;;;17.91;77.42;95935.78;5111138;28;20498;-71
2021/07/30 00:27:24;;;;;;;16.13;8.30;;;;;;;17.93;77.50;95933.41;5110189;28;20043;-72
2021/07/30 00:29:50;;;;;;;20.27;9.02;;;;;;;17.96;76.93;95934.66;5109774;28;20333;-72
2021/07/30 00:32:17;;;;;;;14.73;7.80;;;;;;;17.89;77.32;95932.59;5110372;28;20059;-72
2021/07/30 00:34:43;;;;;;;16.63;7.85;;;;;;;17.82;77.17;95932.50;5110949;28;20047;-72
2021/07/30 00:37:10;;;;;;;13.57;7.30;;;;;;;17.78;77.38;95934.41;5110372;28;20040;-72
2021/07/30 00:39:36;;;;;;;14.73;7.53;;;;;;;17.74;77.28;95936.31;5110958;28;20048;-72
2021/07/30 00:42:05;;;;;;;15.77;8.15;;;;;;;17.75;77.69;95932.44;5110175;28;20040;-73
2021/07/30 00:44:31;;;;;;;13.57;7.40;;;;;;;17.75;77.94;95937.94;5109440;28;20043;-72
2021/07/30 00:46:59;;;;;;;12.88;7.38;;;;;;;17.79;77.37;95938.75;5109761;28;20036;-71
2021/07/30 00:49:25;;;;;;;15.23;7.88;;;;;;;17.83;77.01;95939.59;5108783;28;20050;-72
2021/07/30 00:51:52;;;;;;;15.27;7.57;;;;;;;17.78;77.40;95939.94;5110976;28;20051;-72
2021/07/30 00:54:19;;;;;;;14.25;6.43;;;;;;;17.74;77.27;95941.84;5110750;28;20048;-72
2021/07/30 00:56:45;;;;;;;14.55;7.18;;;;;;;17.67;77.46;95945.28;5111203;28;20054;-72
2021/07/30 00:59:13;;;;;;;13.05;7.13;;;;;;;17.65;77.22;95949.56;5110724;28;20059;-72
2021/07/30 01:01:40;;;;;;;15.88;7.10;;;;;;;17.66;77.17;95956.66;5111201;28;20044;-72
2021/07/30 01:04:06;;;;;;;16.55;8.35;;;;;;;17.67;77.02;95958.25;5110489;28;20054;-72
2021/07/30 01:06:33;;;;;;;17.45;7.53;;;;;;;17.66;76.23;95956.66;5110900;28;20044;-71
2021/07/30 01:08:59;;;;;;;13.45;6.93;;;;;;;17.60;76.05;95955.41;5090706;28;20044;-72
2021/07/30 01:11:26;;;;;;;15.98;7.40;;;;;;;17.55;76.11;95958.47;5090112;28;20040;-72
2021/07/30 01:13:52;;;;;;;16.73;7.93;;;;;;;17.45;76.87;95946.94;5090893;28;20525;-72
2021/07/30 01:16:20;;;;;;;14.98;8.00;;;;;;;17.45;76.94;95940.66;5093761;28;20047;-72
2021/07/30 01:18:47;;;;;;;13.93;7.25;;;;;;;17.44;77.11;95939.88;5094479;28;20040;-72
2021/07/30 01:21:21;;;;;;;16.05;7.63;;;;;;;17.40;77.29;95936.25;5093738;28;20561;-72
2021/07/30 01:23:49;;;;;;;14.13;7.90;;;;;;;17.34;77.05;95937.75;5094538;28;20040;-72
2021/07/30 01:26:15;;;;;;;20.85;9.15;;;;;;;17.31;77.79;95941.22;5093421;28;20044;-72
2021/07/30 01:28:42;;;;;;;16.42;8.38;;;;;;;17.29;77.97;95937.28;5102217;28;20044;-72
2021/07/30 01:31:09;;;;;;;16.33;8.35;;;;;;;17.27;78.05;95942.34;5114066;28;20509;-72
2021/07/30 01:33:36;;;;;;;15.13;8.60;;;;;;;17.27;78.71;95940.38;5114583;28;20050;-71
2021/07/30 01:36:04;;;;;;;12.10;7.85;;;;;;;17.27;78.59;95940.38;5113918;28;20043;-72
2021/07/30 01:38:31;;;;;;;14.85;8.23;;;;;;;17.28;78.74;95942.00;5114453;28;20047;-72
2021/07/30 01:41:09;;;;;;;16.77;8.70;;;;;;;17.25;78.59;95945.47;5114306;28;20044;-72
2021/07/30 01:43:36;;;;;;;14.95;8.55;;;;;;;17.27;78.83;95940.38;5114357;28;20047;-72
2021/07/30 01:46:03;;;;;;;14.18;7.63;;;;;;;17.31;78.78;95935.72;5113401;28;20051;-72
2021/07/30 01:48:29;;;;;;;16.65;8.13;;;;;;;17.37;78.08;95939.75;5114263;28;20047;-71
2021/07/30 01:50:56;;;;;;;14.18;7.45;;;;;;;17.40;78.27;95941.75;5114120;28;20046;-71
2021/07/30 01:53:22;;;;;;;13.52;7.47;;;;;;;17.41;78.63;95939.81;5113384;28;20478;-72
2021/07/30 01:55:49;;;;;;;11.82;7.40;;;;;;;17.38;78.84;95952.38;5114025;28;20066;-71
2021/07/30 01:58:16;;;;;;;13.00;7.63;;;;;;;17.45;78.11;95946.16;5113452;28;20057;-72
2021/07/30 02:00:43;;;;;;;13.75;7.57;;;;;;;17.44;77.60;95944.56;5113838;28;20513;-72
2021/07/30 02:03:09;;;;;;;11.38;6.97;;;;;;;17.42;77.81;95938.63;5113495;28;20438;-72
2021/07/30 02:05:37;;;;;;;12.50;7.05;;;;;;;17.43;77.93;95932.75;5113696;28;20071;-72
2021/07/30 02:08:04;;;;;;;18.23;7.13;;;;;;;17.42;77.15;95928.41;5113288;28;20418;-72
2021/07/30 02:10:30;;;;;;;21.75;7.65;;;;;;;17.38;76.63;95938.59;5113729;28;20513;-71
2021/07/30 02:15:42;;;;;;;11.63;7.00;;;;;;;17.27;76.81;95940.38;5113765;28;20046;-72
2021/07/30 02:18:09;;;;;;;14.02;7.50;;;;;;;17.19;76.97;95942.25;5113095;28;20122;-72
2021/07/30 02:20:35;;;;;;;13.63;6.55;;;;;;;17.16;77.50;95942.19;5113616;28;20043;-72
2021/07/30 02:23:02;;;;;;;18.15;8.35;;;;;;;17.10;77.97;95938.16;5113095;28;20041;-73
2021/07/30 02:25:28;;;;;;;16.80;7.30;;;;;;;17.05;78.93;95944.00;5112670;28;20055;-72
2021/07/30 02:27:55;;;;;;;19.27;8.07;;;;;;;17.06;79.18;95945.56;5112773;28;20047;-71
2021/07/30 02:30:21;;;;;;;17.58;7.60;;;;;;;17.05;79.26;95944.00;5112761;28;22672;-72
2021/07/30 02:32:49;;;;;;;18.10;7.50;;;;;;;17.05;79.33;95944.00;5113263;28;20490;-72
2021/07/30 02:35:16;;;;;;;19.65;7.55;;;;;;;17.06;79.50;95945.56;5112504;28;20520;-71
2021/07/30 02:37:42;;;;;;;17.33;6.63;;;;;;;17.12;78.40;95942.16;5113265;28;20118;-71
2021/07/30 02:40:09;;;;;;;15.80;6.88;;;;;;;17.13;78.15;95945.69;5112448;28;20054;-72
2021/07/30 02:42:36;;;;;;;23.73;7.22;;;;;;;17.09;78.28;95945.63;5112916;28;20070;-71
2021/07/30 02:45:03;;;;;;;18.05;6.97;;;;;;;17.08;77.55;95954.25;5112421;28;20036;-71
2021/07/30 02:47:30;;;;;;;20.23;7.45;;;;;;;16.99;77.43;95953.72;5113209;28;20047;-72
2021/07/30 02:49:57;;;;;;;18.58;7.22;;;;;;;17.00;77.37;95958.06;5112904;28;20039;-71
2021/07/30 02:52:24;;;;;;;17.35;7.63;;;;;;;16.98;78.00;95965.88;5112400;28;20512;-71
2021/07/30 02:54:50;;;;;;;17.63;7.30;;;;;;;16.98;78.14;95968.66;5112727;28;20489;-71
2021/07/30 02:57:17;;;;;;;17.85;7.20;;;;;;;16.95;78.09;95973.69;5112259;28;20067;-72
2021/07/30 02:59:43;;;;;;;12.57;6.63;;;;;;;16.92;78.02;95971.69;5112612;28;20433;-71
2021/07/30 03:02:10;;;;;;;13.18;6.88;;;;;;;16.86;78.17;95975.94;5112376;28;20409;-72
2021/07/30 03:04:36;;;;;;;18.20;7.30;;;;;;;16.82;78.74;95975.06;5112419;28;20409;-71
2021/07/30 03:07:04;;;;;;;20.88;7.78;;;;;;;16.75;78.48;95974.94;5111978;28;20494;-72
2021/07/30 03:09:31;;;;;;;14.70;7.00;;;;;;;16.75;79.11;95974.94;5112543;28;20556;-71
2021/07/30 03:11:57;;;;;;;18.38;7.93;;;;;;;16.79;78.99;95978.53;5112631;28;20525;-71
2021/07/30 03:14:24;;;;;;;17.48;7.88;;;;;;;16.79;78.65;95978.53;5112031;28;20470;-72
2021/07/30 03:16:50;;;;;;;20.55;9.27;;;;;;;16.80;79.01;95977.38;5112399;28;20403;-71
2021/07/30 03:19:17;;;;;;;23.40;9.07;;;;;;;16.84;78.97;95980.19;5111982;28;20414;-72
2021/07/30 03:21:43;;;;;;;21.25;11.13;;;;;;;16.82;79.42;95977.81;5112431;28;20506;-71
2021/07/30 03:24:11;;;;;;;18.63;9.85;;;;;;;16.79;79.66;95980.50;5112042;28;20043;-72
2021/07/30 03:26:37;;;;;;;19.73;9.50;;;;;;;16.80;79.83;95977.38;5112022;28;20044;-72
2021/07/30 03:29:04;;;;;;;24.33;11.07;;;;;;;16.81;80.03;95980.91;5111408;28;20040;-72
2021/07/30 03:31:31;;;;;;;20.60;10.40;;;;;;;16.85;79.40;95984.53;5112311;28;20406;-71
2021/07/30 03:33:57;;;;;;;21.60;11.15;;;;;;;16.87;79.23;95972.00;5112198;28;20548;-72
2021/07/30 03:36:24;;;;;;;19.33;10.90;;;;;;;16.86;79.41;95975.94;5111346;28;20046;-71
2021/07/30 03:38:50;;;;;;;18.65;11.07;;;;;;;16.90;79.76;95971.25;5111835;28;20040;-72
2021/07/30 03:41:18;;;;;;;20.20;11.35;;;;;;;16.89;79.52;95986.19;5111590;28;20044;-71
2021/07/30 03:43:44;;;;;;;21.73;11.23;;;;;;;16.86;79.31;95981.44;5112028;28;20414;-71
2021/07/30 03:46:11;;;;;;;23.85;12.23;;;;;;;16.84;79.46;95983.72;5111293;28;20054;-71
2021/07/30 03:48:37;;;;;;;19.75;11.52;;;;;;;16.82;79.53;95991.56;5112150;28;20048;-72
2021/07/30 03:51:04;;;;;;;24.02;11.85;;;;;;;16.81;79.10;95989.97;5111305;28;20047;-72
2021/07/30 03:53:30;;;;;;;22.75;12.20;;;;;;;16.79;78.94;95983.25;5111925;28;20047;-72
2021/07/30 03:55:57;;;;;;;19.98;11.82;;;;;;;16.79;79.21;95977.75;5111783;28;20047;-71
2021/07/30 03:58:24;;;;;;;20.95;11.27;;;;;;;16.79;79.13;95992.28;5111036;28;20410;-71
2021/07/30 04:00:51;;;;;;;23.95;12.95;;;;;;;16.80;79.52;95982.88;5111804;28;20048;-71
2021/07/30 04:03:17;;;;;;;22.48;12.55;;;;;;;16.83;79.91;95998.66;5111415;28;20430;-72
2021/07/30 04:05:44;;;;;;;23.83;12.35;;;;;;;16.88;79.74;95995.59;5111314;28;20406;-71
2021/07/30 04:08:10;;;;;;;17.90;10.52;;;;;;;16.93;79.07;95998.03;5111038;28;20510;-72
2021/07/30 04:10:37;;;;;;;19.35;11.60;;;;;;;16.94;78.94;95993.34;5111720;28;20406;-72
2021/07/30 04:13:03;;;;;;;21.13;12.60;;;;;;;17.00;79.07;95991.06;5111153;28;20070;-72
2021/07/30 04:15:32;;;;;;;22.33;12.38;;;;;;;17.04;78.99;95991.91;5111437;28;20048;-71
2021/07/30 04:17:58;;;;;;;19.55;11.88;;;;;;;17.04;79.30;95986.41;5111557;28;20513;-71
2021/07/30 04:20:25;;;;;;;24.02;11.93;;;;;;;17.09;78.77;95986.09;5110740;28;20039;-71
2021/07/30 04:22:51;;;;;;;24.23;12.93;;;;;;;17.08;78.57;95979.03;5111720;28;20044;-72
2021/07/30 04:25:18;;;;;;;22.00;12.43;;;;;;;17.08;78.90;95987.28;5111028;28;20055;-72
2021/07/30 04:27:44;;;;;;;24.00;12.25;;;;;;;17.09;78.36;95973.16;5110955;28;20048;-72
2021/07/30 04:30:11;;;;;;;23.20;12.30;;;;;;;17.06;78.70;95979.38;5090781;28;20048;-72
2021/07/30 04:32:39;;;;;;;22.63;11.88;;;;;;;17.08;79.08;95971.56;5091241;28;20036;-71
2021/07/30 04:35:06;;;;;;;20.98;11.45;;;;;;;17.14;78.72;95974.78;5098257;28;20047;-71
2021/07/30 04:37:33;;;;;;;17.63;11.35;;;;;;;17.17;78.75;95974.84;5111395;28;20046;-72
2021/07/30 04:39:59;;;;;;;21.88;11.82;;;;;;;17.20;78.47;95973.31;5111271;28;20044;-71
2021/07/30 04:42:27;;;;;;;24.75;12.00;;;;;;;17.23;78.59;95972.56;5110881;28;20043;-71
2021/07/30 04:44:53;;;;;;;25.20;12.68;;;;;;;17.27;78.94;95975.38;5111363;28;20044;-71
2021/07/30 04:47:19;;;;;;;18.38;10.88;;;;;;;17.29;79.44;95960.09;5110844;28;20058;-71
2021/07/30 04:49:47;;;;;;;22.75;11.70;;;;;;;17.38;78.47;95968.88;5112964;28;20044;-72
2021/07/30 04:52:14;;;;;;;20.92;12.27;;;;;;;17.39;78.16;95966.91;5114867;28;20047;-71
2021/07/30 04:54:40;;;;;;;20.15;10.82;;;;;;;17.41;78.60;95959.84;5115331;28;20054;-71
2021/07/30 04:57:08;;;;;;;21.00;11.68;;;;;;;17.48;78.17;95968.19;5114742;28;20052;-71
2021/07/30 04:59:36;;;;;;;26.20;12.35;;;;;;;17.55;77.62;95966.75;5114825;28;20048;-71
2021/07/30 05:02:02;;;;;;;24.48;11.57;;;;;;;17.58;77.12;95968.72;5114748;28;20047;-72
2021/07/30 05:04:29;;;;;;;22.77;11.32;;;;;;;17.61;77.38;95965.25;5114918;28;20044;-72
2021/07/30 05:06:57;;;;;;;22.02;9.95;;;;;;;17.64;77.79;95958.97;5114674;28;20054;-71
2021/07/30 05:09:24;;;;;;;20.40;9.95;;;;;;;17.66;78.12;95967.69;5114558;28;20043;-71
2021/07/30 05:11:50;;;;;;;16.67;9.30;;;;;;;17.69;78.32;95973.22;5115003;28;20055;-71
2021/07/30 05:14:17;;;;;;;21.85;10.30;;;;;;;17.69;78.21;95966.91;5114271;28;20047;-71
2021/07/30 05:16:43;;;;;;;15.82;9.82;;;;;;;17.68;78.29;95968.09;5114951;28;20049;-72
2021/07/30 05:19:10;;;;;;;23.33;10.10;;;;;;;17.73;77.83;95956.78;5096165;28;20093;-71
2021/07/30 05:21:37;;;;;;;17.63;9.32;;;;;;;17.76;76.74;95961.53;5114707;28;20046;-72
2021/07/30 05:24:05;;;;;;;15.77;8.63;;;;;;;17.83;76.25;95971.84;5114433;28;20050;-72
2021/07/30 05:26:32;;;;;;;17.35;9.68;;;;;;;17.86;76.53;95971.91;5114165;28;20044;-71
2021/07/30 05:28:59;;;;;;;18.73;9.77;;;;;;;17.83;76.25;95978.16;5114325;28;20044;-71
2021/07/30 05:31:25;;;;;;;19.35;9.30;;;;;;;17.83;76.34;95982.88;5114217;28;20401;-71
2021/07/30 05:33:51;;;;;;;15.77;8.35;;;;;;;17.77;76.26;95968.63;5114395;28;20114;-74
2021/07/30 05:36:20;;;;;;;15.90;8.55;;;;;;;17.76;76.40;95958.78;5112045;28;20044;-74
2021/07/30 05:38:47;;;;;;;18.13;9.38;;;;;;;17.74;76.06;95958.34;5114178;28;20047;-74
2021/07/30 05:41:16;;;;;;;16.42;9.05;;;;;;;17.75;76.50;95957.22;5113862;28;20046;-73
2021/07/30 05:43:45;;;;;;;19.85;8.95;;;;;;;17.81;76.27;95963.19;5113131;28;20074;-74
2021/07/30 05:46:13;;;;;;;15.93;8.70;;;;;;;17.88;76.96;95966.81;5113536;28;20152;-73
2021/07/30 05:48:39;;;;;;;17.35;8.75;;;;;;;18.02;76.94;95965.41;5114237;28;20040;-75
2021/07/30 05:51:06;;;;;;;17.50;8.68;;;;;;;18.13;76.94;95969.06;5113583;28;20043;-74
2021/07/30 05:53:32;;;;;;;16.60;8.77;;;;;;;18.21;75.03;95959.72;5113928;28;20406;-74
2021/07/30 05:55:59;;;;;;;16.05;8.70;;;;;;;18.27;74.89;95958.22;5113874;28;20050;-74
2021/07/30 05:58:26;;;;;;;17.95;8.57;;;;;;;18.37;74.54;95945.69;5112937;28;20043;-74
2021/07/30 06:00:53;;;;;;;17.55;8.73;;;;;;;18.41;74.14;95946.53;5113620;28;20055;-75
2021/07/30 06:03:19;;;;;;;14.10;8.07;;;;;;;18.50;75.02;95949.78;5113258;28;20044;-73
2021/07/30 06:05:46;;;;;;;17.10;8.43;;;;;;;18.58;75.05;95950.63;5113623;28;20043;-75
2021/07/30 06:08:13;;;;;;;12.23;7.18;;;;;;;18.65;75.04;95950.72;5113226;28;20048;-74
2021/07/30 06:10:40;;;;;;;17.25;7.97;;;;;;;18.71;71.44;95951.97;5113467;28;20055;-73
2021/07/30 06:13:06;;;;;;;20.27;9.05;;;;;;;18.72;71.48;95956.31;5113097;28;20051;-75
2021/07/30 06:15:34;;;;;;;20.25;8.23;;;;;;;18.78;71.51;95954.78;5113646;28;20050;-75
2021/07/30 06:18:02;;;;;;;14.95;7.38;;;;;;;18.83;71.23;95956.41;5113390;28;20039;-76
2021/07/30 06:20:28;;;;;;;15.57;6.75;;;;;;;18.87;69.17;95963.53;5113143;28;20489;-74
2021/07/30 06:22:55;;;;;;;12.43;7.07;;;;;;;18.94;70.56;95958.06;5113356;28;20131;-73
2021/07/30 06:25:21;;;;;;;16.55;7.25;;;;;;;18.96;71.31;95964.03;5112807;28;20086;-74
2021/07/30 06:27:48;;;;;;;23.45;8.98;;;;;;;19.01;71.23;95968.41;5112766;28;20044;-73
2021/07/30 06:30:15;;;;;;;16.38;7.68;;;;;;;19.08;72.05;95962.94;5112842;28;20048;-73
2021/07/30 06:32:43;;;;;;;19.23;7.82;;;;;;;19.15;72.23;95967.69;5113210;28;20035;-74
2021/07/30 06:35:13;;;;;;;17.25;8.02;;;;;;;19.21;71.44;95968.94;5112506;28;20577;-74
2021/07/30 06:37:39;;;;;;;22.15;8.77;;;;;;;19.18;71.84;95966.94;5112792;28;20521;-74
2021/07/30 06:40:06;;;;;;;26.48;8.40;;;;;;;19.19;70.99;95955.50;5112498;28;20413;-75
2021/07/30 06:42:33;;;;;;;18.85;8.32;;;;;;;19.14;71.24;95952.31;5112777;28;20504;-74
2021/07/30 06:45:00;;;;;;;18.83;8.23;;;;;;;19.23;71.74;95955.56;5113311;28;20039;-74
2021/07/30 06:47:26;;;;;;;18.02;8.13;;;;;;;19.31;70.90;95959.94;5112505;28;20047;-73
2021/07/30 06:49:54;;;;;;;19.35;8.55;;;;;;;19.37;70.37;95958.41;5112824;28;20044;-74
2021/07/30 06:52:21;;;;;;;27.48;8.65;;;;;;;19.42;70.53;95955.28;5112267;28;20494;-73
2021/07/30 06:54:47;;;;;;;16.60;7.90;;;;;;;19.49;71.79;95960.06;5112814;28;20060;-73
2021/07/30 06:57:14;;;;;;;29.25;8.98;;;;;;;19.60;72.13;95962.91;5111243;28;20052;-73
2021/07/30 06:59:40;;;;;;;24.55;8.65;;;;;;;19.67;70.88;95966.50;5110921;28;20046;-72
2021/07/30 07:02:07;;;;;;;19.65;7.70;;;;;;;19.79;72.03;95965.41;5112025;28;20048;-73
2021/07/30 07:04:33;;;;;;;24.40;8.48;;;;;;;19.91;73.03;95959.53;5112408;28;20040;-73
2021/07/30 07:07:01;;;;;;;17.63;8.45;;;;;;;20.02;72.21;95965.88;5112551;28;20047;-73
2021/07/30 07:09:28;;;;;;;18.15;7.82;;;;;;;20.10;70.86;95955.66;5112495;28;20039;-73
2021/07/30 07:11:54;;;;;;;17.45;7.85;;;;;;;20.24;69.30;95960.44;5112002;28;20036;-73
2021/07/30 07:14:21;;;;;;;13.77;8.00;;;;;;;20.36;70.33;95962.84;5112180;28;20119;-73
2021/07/30 07:16:47;;;;;;;12.50;8.02;;;;;;;20.43;67.77;95962.88;5112332;28;20039;-73
2021/07/30 07:19:13;;;;;;;15.20;8.02;;;;;;;20.50;68.41;95957.38;5111872;28;20048;-73
2021/07/30 07:21:40;;;;;;;15.05;8.52;;;;;;;20.54;67.62;95958.19;5112445;28;20051;-73
2021/07/30 07:24:09;;;;;;;17.27;9.45;;;;;;;20.61;67.76;95949.09;5111731;28;20051;-73
2021/07/30 07:26:37;;;;;;;14.63;8.43;;;;;;;20.62;67.74;95958.19;5110917;28;20044;-73
2021/07/30 07:29:04;;;;;;;17.63;9.20;;;;;;;20.67;67.15;95949.50;5111105;28;20054;-73
2021/07/30 07:31:30;;;;;;;18.30;8.80;;;;;;;20.77;68.20;95943.19;5110846;28;20043;-75
2021/07/30 07:33:57;;;;;;;14.50;7.93;;;;;;;20.92;68.24;95938.44;5107499;28;20036;-75
2021/07/30 07:36:24;;;;;;;14.20;8.45;;;;;;;21.02;66.69;95946.75;5109271;28;20043;-74
2021/07/30 07:38:50;;;;;;;13.02;8.23;;;;;;;21.15;66.15;95940.81;5111192;28;20066;-75
2021/07/30 07:41:18;;;;;;;12.82;8.60;;;;;;;21.29;65.69;95940.78;5111482;28;20459;-75
2021/07/30 07:43:45;;;;;;;13.98;7.80;;;;;;;21.44;65.18;95942.38;5111635;28;20063;-74
2021/07/30 07:46:11;;;;;;;17.77;9.02;;;;;;;21.54;64.56;95941.56;5111123;28;20040;-74
2021/07/30 07:48:38;;;;;;;18.10;8.02;;;;;;;21.67;64.86;95943.94;5111797;28;20047;-74
2021/07/30 07:51:04;;;;;;;11.75;7.90;;;;;;;21.78;65.29;95942.72;5110400;28;20052;-74
2021/07/30 07:53:31;;;;;;;15.32;8.70;;;;;;;21.85;63.08;95944.66;5111131;28;20055;-73
2021/07/30 07:56:01;;;;;;;13.35;7.57;;;;;;;21.98;65.62;95948.59;5111176;28;20044;-72
2021/07/30 07:58:29;;;;;;;13.38;7.90;;;;;;;22.17;63.37;95938.22;5110636;28;20039;-73
2021/07/30 08:00:56;;;;;;;13.20;8.00;;;;;;;22.35;63.07;95942.50;5111310;28;20043;-72
2021/07/30 08:03:22;;;;;;;11.43;7.88;;;;;;;22.50;61.14;95932.13;5111223;28;20055;-73
2021/07/30 08:05:49;;;;;;;12.63;7.78;;;;;;;23.10;59.65;95936.44;5111089;28;20039;-72
2021/07/30 08:08:15;;;;;;;10.55;7.28;;;;;;;24.02;57.41;95933.97;5110833;28;20510;-73
2021/07/30 08:10:42;;;;;;;13.88;7.35;;;;;;;24.71;55.21;95932.66;5095195;28;20048;-74
2021/07/30 08:13:08;;;;;;;12.50;7.32;;;;;;;25.94;54.98;95932.16;5090671;28;20402;-73
2021/07/30 08:15:36;;;;;;;13.57;7.25;;;;;;;26.71;49.52;95934.53;5091251;28;20043;-73
2021/07/30 08:18:03;;;;;;;13.77;6.60;;;;;;;27.68;48.73;95932.97;5097268;28;20032;-74
2021/07/30 08:20:29;;;;;;;12.80;6.63;;;;;;;28.47;45.55;95930.81;5111118;28;20043;-74
2021/07/30 08:22:56;;;;;;;11.85;6.50;;;;;;;29.20;44.39;95931.75;5111060;28;20047;-76
2021/07/30 08:25:22;;;;;;;16.02;7.25;;;;;;;29.26;42.36;95935.53;5111525;28;20047;-76
2021/07/30 08:27:49;;;;;;;18.75;7.53;;;;;;;29.67;40.57;95922.56;5113418;28;20039;-75
2021/07/30 08:30:15;;;;;;;18.13;7.00;;;;;;;30.25;42.17;95929.75;5095788;28;20551;-75
2021/07/30 08:32:43;;;;;;;15.75;6.85;;;;;;;30.31;38.37;95928.69;5114392;28;20046;-75
2021/07/30 08:35:10;;;;;;;11.73;6.55;;;;;;;30.39;39.77;95927.19;5114081;28;20056;-75
2021/07/30 08:37:36;;;;;;;12.25;6.65;;;;;;;30.91;40.46;95928.41;5114526;28;20047;-75
2021/07/30 08:40:03;;;;;;;11.82;6.40;;;;;;;31.24;38.31;95927.13;5114706;28;20040;-73
2021/07/30 08:42:36;;;;;;;11.90;6.57;;;;;;;31.52;37.97;95928.75;5115312;28;20039;-74
2021/07/30 08:45:04;;;;;;;14.25;6.70;;;;;;;30.45;37.93;95929.41;5114977;28;20058;-75
2021/07/30 08:47:31;;;;;;;15.50;6.63;;;;;;;30.29;39.08;95934.00;5114895;28;20044;-74
2021/07/30 08:49:59;;;;;;;14.40;6.63;;;;;;;30.73;37.94;95936.75;5115268;28;20039;-74
2021/07/30 08:52:32;;;;;;;14.32;6.15;;;;;;;30.62;36.67;95931.53;5114447;28;20039;-73
2021/07/30 08:54:59;;;;;;;15.20;6.65;;;;;;;30.73;37.78;95930.34;5114999;28;20386;-74
2021/07/30 08:57:25;;;;;;;12.88;6.25;;;;;;;30.79;35.61;95929.28;5114479;28;20577;-75
2021/07/30 08:59:51;;;;;;;10.55;5.93;;;;;;;31.06;35.67;95934.25;5114279;28;20535;-75
2021/07/30 09:02:18;;;;;;;11.38;6.25;;;;;;;31.62;39.83;95926.75;5114374;28;20130;-75
2021/07/30 09:04:45;;;;;;;8.95;5.60;;;;;;;31.87;34.75;95926.47;5114579;28;20048;-75
2021/07/30 09:07:12;;;;;;;9.77;5.47;;;;;;;32.08;33.62;95923.97;5114038;28;20048;-74
2021/07/30 09:09:53;;;;;;;12.18;5.57;;;;;;;31.80;35.66;95923.94;5114690;28;20043;-76
2021/07/30 09:12:22;;;;;;;10.18;5.45;;;;;;;32.31;38.23;95920.47;5114142;28;20055;-74
2021/07/30 09:14:49;;;;;;;7.72;5.20;;;;;;;32.39;34.64;95918.94;5114745;28;20039;-76
2021/07/30 09:17:16;;;;;;;15.20;6.25;;;;;;;32.81;33.80;95911.78;5113858;28;20048;-75
2021/07/30 09:20:03;;;;;;;15.32;6.30;;;;;;;32.45;33.33;95917.03;5114280;28;20047;-75
2021/07/30 09:22:47;;;;;;;13.27;6.05;;;;;;;32.47;33.43;95916.56;5114304;28;20040;-74
2021/07/30 09:25:15;;;;;;;12.52;5.88;;;;;;;32.61;33.63;95907.44;5113740;28;20073;-77
2021/07/30 09:27:41;;;;;;;10.57;5.80;;;;;;;32.61;34.74;95903.84;5114167;28;20036;-74
2021/07/30 09:30:15;;;;;;;12.48;6.03;;;;;;;32.23;34.30;95908.00;5113667;28;20050;-73
2021/07/30 09:32:42;;;;;;;10.93;5.43;;;;;;;32.02;33.23;95908.97;5114436;28;20044;-74
2021/07/30 09:35:09;;;;;;;15.52;6.80;;;;;;;32.07;34.33;95906.28;5112992;28;20047;-76
2021/07/30 09:37:37;;;;;;;11.98;5.88;;;;;;;31.89;36.86;95901.44;5114411;28;20047;-75
2021/07/30 09:40:04;;;;;;;14.73;6.28;;;;;;;31.11;34.98;95896.28;5113744;28;20086;-75
2021/07/30 09:42:33;;;;;;;12.40;5.90;;;;;;;31.13;35.34;95896.63;5113204;28;20053;-75
2021/07/30 09:45:00;;;;;;;25.67;7.82;;;;;;;30.84;35.88;95896.97;5113666;28;20183;-77
2021/07/30 09:47:28;;;;;;;15.10;6.15;;;;;;;30.62;39.09;95892.19;5113688;28;20044;-74
2021/07/30 09:49:55;;;;;;;20.52;6.63;;;;;;;30.45;38.76;95887.28;5113324;28;20490;-75
2021/07/30 09:52:24;;;;;;;19.08;6.78;;;;;;;30.14;41.42;95885.22;5110844;28;20059;-75
2021/07/30 09:54:56;;;;;;;11.88;6.10;;;;;;;29.88;44.89;95878.94;5113675;28;20040;-75
2021/07/30 09:57:25;;;;;;;20.88;7.45;;;;;;;29.70;43.83;95876.75;5113331;28;20043;-74
2021/07/30 09:59:52;;;;;;;14.35;6.28;;;;;;;29.58;43.95;95877.59;5113330;28;20410;-74
2021/07/30 10:02:21;;;;;;;16.85;6.45;;;;;;;29.51;43.47;95872.22;5112832;28;20051;-75
2021/07/30 10:04:50;;;;;;;17.27;7.18;;;;;;;29.18;41.42;95872.50;5095553;28;20058;-74
2021/07/30 10:07:19;;;;;;;14.55;7.10;;;;;;;28.89;42.90;95863.47;5112874;28;20052;-76
2021/07/30 10:09:50;;;;;;;29.10;8.93;;;;;;;28.80;40.85;95861.34;5113556;28;20067;-74
2021/07/30 10:12:19;;;;;;;25.55;8.77;;;;;;;28.42;44.23;95864.16;5110706;28;20048;-74
2021/07/30 10:14:46;;;;;;;17.40;8.02;;;;;;;28.39;47.01;95862.22;5112742;28;20043;-75
2021/07/30 10:17:14;;;;;;;21.75;7.57;;;;;;;28.50;47.00;95863.47;5112927;28;20096;-73
2021/07/30 10:19:42;;;;;;;14.90;6.25;;;;;;;28.58;45.70;95861.25;5113429;28;20043;-74
2021/07/30 10:22:13;;;;;;;15.02;6.85;;;;;;;28.65;47.27;95849.03;5112072;28;20505;-73
2021/07/30 10:24:45;;;;;;;13.00;6.13;;;;;;;28.73;44.58;95848.34;5113287;28;20054;-74
2021/07/30 10:27:13;;;;;;;;;;;;;;;28.80;42.95;95848.09;5113045;28;20059;-74
2021/07/30 10:30:06;;;;;;;16.08;6.53;;;;;;;28.77;43.13;95837.03;5112736;28;19927;-74
2021/07/30 10:32:44;;;;;;;20.00;7.30;;;;;;;28.55;42.90;95831.31;5113164;28;20032;-77
2021/07/30 10:35:12;;;;;;;20.27;7.03;;;;;;;28.44;43.46;95842.06;5112159;28;20509;-75
2021/07/30 10:37:41;;;;;;;26.70;9.07;;;;;;;28.15;44.09;95839.34;5111732;28;20039;-76
2021/07/30 10:40:16;;;;;;;18.65;7.53;;;;;;;28.27;44.67;95832.97;5112158;28;20040;-76
2021/07/30 10:43:06;;;;;;;17.95;7.32;;;;;;;28.42;46.73;95836.16;5111519;28;20512;-77
2021/07/30 10:45:35;;;;;;;17.25;7.80;;;;;;;28.52;47.00;95827.41;5112690;28;20043;-76
2021/07/30 10:48:34;;;;;;;14.35;6.95;;;;;;;28.60;44.44;95828.72;5111556;28;20052;-74
2021/07/30 10:51:04;;;;;;;14.63;6.97;;;;;;;28.68;46.25;95820.13;5112557;28;20039;-76
2021/07/30 10:53:48;;;;;;;14.25;6.63;;;;;;;28.83;46.47;95813.59;5112125;28;20398;-78
2021/07/30 10:56:48;;;;;;;12.32;6.07;;;;;;;29.01;46.18;95820.63;5112394;28;20048;-75
2021/07/30 10:59:23;;;;;;;17.05;6.57;;;;;;;29.16;44.85;95816.13;5111690;28;20051;-77
2021/07/30 11:01:59;;;;;;;18.13;8.18;;;;;;;29.26;41.98;95817.75;5112655;28;20051;-76
2021/07/30 11:04:26;;;;;;;17.92;7.18;;;;;;;29.33;45.52;95817.50;5111748;28;20042;-76
2021/07/30 11:06:54;;;;;;;17.95;7.60;;;;;;;29.32;42.44;95810.34;5094778;28;20048;-75
2021/07/30 11:09:25;;;;;;;13.52;7.38;;;;;;;29.25;43.82;95799.38;5111901;28;20066;-76
2021/07/30 11:11:52;;;;;;;15.27;7.13;;;;;;;29.16;42.97;95799.28;5112391;28;20044;-75
2021/07/30 11:14:21;;;;;;;14.75;7.30;;;;;;;29.16;41.55;95796.50;5111691;28;20051;-77
2021/07/30 11:16:49;;;;;;;19.45;7.47;;;;;;;29.19;43.11;95790.00;5112122;28;20058;-75
2021/07/30 11:19:18;;;;;;;19.75;7.40;;;;;;;29.17;41.85;95794.47;5111594;28;20056;-75
2021/07/30 11:21:45;;;;;;;12.75;7.47;;;;;;;28.95;40.98;95792.41;5112061;28;20043;-74
2021/07/30 11:24:12;;;;;;;14.10;6.97;;;;;;;28.93;41.48;95791.28;5111703;28;20048;-76
2021/07/30 11:26:40;;;;;;;16.70;7.00;;;;;;;28.98;44.91;95790.72;5111916;28;20516;-74
2021/07/30 11:29:09;;;;;;;12.82;7.47;;;;;;;28.94;43.84;95795.66;5111416;28;20039;-74